Albert J Ellis Airport
KOAJ : now visible

Airfield :











YOU CAN JOIN US ON...

 
LOGIN :

Register | Disclaimer

   EN    FR    IT 

 









Legend :    VFR   Marginal VFR   IFR   Intensive IFR   Very Intensive IFR
Visi :
Ceiling :
>= 8 km
>= 3000ft
5 to 8 km
1000 to 3000 ft
1500m to 5 km
500 to 1000 ft
800 to 1500m
200 to 500 ft
< 800m
< 200 ft
Symbols :   Thunderstorms  Fog  Heavy snow  Heavy precipitations  Wind > 20 kt






- Airport Elevation : 94 ft


KOAJ - Albert J Ellis

CURRENT METAR :
  • 310756Z AUTO 00000KT 10SM OVC090 21/20 A2994 RMK AO2 SLP140 T02060200

EXPIRED METARs :
  • 310656Z AUTO 00000KT 10SM BKN080 OVC110 20/19 A2994 RMK AO2 SLP141 T02000194
  • 310556Z AUTO 21004KT 10SM FEW095 OVC110 21/20 A2993 RMK AO2 RAB0459E49 SLP138 P0000 60000 T02060200 10256 20206 58011
  • 310518Z AUTO VRB04KT 10SM -RA FEW029 BKN060 OVC100 21/19 A2996 RMK AO2 RAB0459 P0000

TAF KOAJ
Valid from the 31 at 06:00 until the 01 at 06:00 UTC


310534Z 3106/0106 VRB03KT P6SM SCT015 BKN080
TEMPO 3109/3111 BKN015
FM311100 01012G18KT P6SM SCT060
FM010000 02005KT P6SM SKC AMD LTD TO CLD VIS AND WIND
KZDC FIR / North America



MET'MAP, your aeronautical weather chart ! - Copyright ORBIFLY December 2007 - Disclaimer

ORBIFLY MET'MAP TEAM :

Programming & Development : Alexandra Zaïnal
Concept & original design : Baudouin d'Aumeries
Assistance for programming : Marc-Olivier Méhu
Technical & hardware support : Manuel Goepfert

Contact : metmap@orbifly.com




SOURCES & CREDITS :

   NOAA       Earth
Advisory